sensor_id;sensor_type;location;lat;lon;timestamp;P1;durP1;ratioP1;P2;durP2;ratioP2
68074;SDS011;54864;52.002;5.468;2022-08-01T00:01:44;7.85;;;5.50;;
68074;SDS011;54864;52.002;5.468;2022-08-01T00:11:42;7.65;;;4.78;;
68074;SDS011;54864;52.002;5.468;2022-08-01T00:13:23;7.10;;;4.65;;
68074;SDS011;54864;52.002;5.468;2022-08-01T00:16:53;7.45;;;4.75;;
68074;SDS011;54864;52.002;5.468;2022-08-01T00:20:08;8.25;;;5.15;;
68074;SDS011;54864;52.002;5.468;2022-08-01T00:22:27;8.23;;;4.65;;
68074;SDS011;54864;52.002;5.468;2022-08-01T00:26:27;9.25;;;5.88;;
68074;SDS011;54864;52.002;5.468;2022-08-01T00:27:52;8.23;;;5.35;;
68074;SDS011;54864;52.002;5.468;2022-08-01T00:29:52;8.70;;;5.25;;
68074;SDS011;54864;52.002;5.468;2022-08-01T00:31:24;10.38;;;5.97;;
68074;SDS011;54864;52.002;5.468;2022-08-01T00:33:25;10.00;;;5.75;;
68074;SDS011;54864;52.002;5.468;2022-08-01T00:35:37;9.57;;;5.60;;
68074;SDS011;54864;52.002;5.468;2022-08-01T00:37:05;11.88;;;5.30;;
68074;SDS011;54864;52.002;5.468;2022-08-01T00:38:48;9.45;;;5.78;;
68074;SDS011;54864;52.002;5.468;2022-08-01T00:40:36;11.05;;;6.22;;
68074;SDS011;54864;52.002;5.468;2022-08-01T00:56:08;9.77;;;6.30;;
68074;SDS011;54864;52.002;5.468;2022-08-01T01:06:55;12.77;;;8.38;;
68074;SDS011;54864;52.002;5.468;2022-08-01T01:33:15;13.70;;;9.30;;
68074;SDS011;54864;52.002;5.468;2022-08-01T01:35:06;13.93;;;8.77;;
68074;SDS011;54864;52.002;5.468;2022-08-01T01:36:52;14.32;;;9.05;;
68074;SDS011;54864;52.002;5.468;2022-08-01T01:43:12;14.73;;;9.25;;
68074;SDS011;54864;52.002;5.468;2022-08-01T01:47:50;13.63;;;9.55;;
68074;SDS011;54864;52.002;5.468;2022-08-01T01:50:11;12.88;;;8.85;;
68074;SDS011;54864;52.002;5.468;2022-08-01T01:52:15;16.02;;;9.93;;
68074;SDS011;54864;52.002;5.468;2022-08-01T01:56:05;15.43;;;9.80;;
68074;SDS011;54864;52.002;5.468;2022-08-01T01:57:51;14.60;;;9.73;;
68074;SDS011;54864;52.002;5.468;2022-08-01T02:00:29;15.48;;;9.63;;
68074;SDS011;54864;52.002;5.468;2022-08-01T02:03:01;14.52;;;9.85;;
68074;SDS011;54864;52.002;5.468;2022-08-01T02:05:24;14.50;;;9.75;;
68074;SDS011;54864;52.002;5.468;2022-08-01T02:07:06;16.25;;;10.35;;
68074;SDS011;54864;52.002;5.468;2022-08-01T02:11:26;17.02;;;11.25;;
68074;SDS011;54864;52.002;5.468;2022-08-01T02:13:41;17.55;;;11.38;;
68074;SDS011;54864;52.002;5.468;2022-08-01T02:15:33;16.65;;;10.70;;
68074;SDS011;54864;52.002;5.468;2022-08-01T02:17:20;19.42;;;11.90;;
68074;SDS011;54864;52.002;5.468;2022-08-01T02:21:33;20.33;;;11.77;;
68074;SDS011;54864;52.002;5.468;2022-08-01T02:23:38;17.80;;;11.07;;
68074;SDS011;54864;52.002;5.468;2022-08-01T02:25:36;19.58;;;11.88;;
68074;SDS011;54864;52.002;5.468;2022-08-01T02:27:54;17.63;;;10.87;;
68074;SDS011;54864;52.002;5.468;2022-08-01T02:29:58;19.92;;;11.10;;
68074;SDS011;54864;52.002;5.468;2022-08-01T02:31:47;21.23;;;11.43;;
68074;SDS011;54864;52.002;5.468;2022-08-01T02:33:24;16.23;;;10.45;;
68074;SDS011;54864;52.002;5.468;2022-08-01T02:37:28;18.30;;;11.80;;
68074;SDS011;54864;52.002;5.468;2022-08-01T02:39:29;20.73;;;11.73;;
68074;SDS011;54864;52.002;5.468;2022-08-01T02:43:25;20.15;;;11.50;;
68074;SDS011;54864;52.002;5.468;2022-08-01T02:45:25;17.60;;;11.23;;
68074;SDS011;54864;52.002;5.468;2022-08-01T02:47:10;22.20;;;11.68;;
68074;SDS011;54864;52.002;5.468;2022-08-01T02:49:02;18.88;;;10.63;;
68074;SDS011;54864;52.002;5.468;2022-08-01T02:50:49;24.90;;;11.75;;
68074;SDS011;54864;52.002;5.468;2022-08-01T02:53:07;20.67;;;10.85;;
68074;SDS011;54864;52.002;5.468;2022-08-01T02:55:03;22.10;;;11.57;;
68074;SDS011;54864;52.002;5.468;2022-08-01T02:57:05;17.60;;;10.18;;
68074;SDS011;54864;52.002;5.468;2022-08-01T02:59:12;19.35;;;10.73;;
68074;SDS011;54864;52.002;5.468;2022-08-01T03:01:08;18.38;;;10.95;;
68074;SDS011;54864;52.002;5.468;2022-08-01T03:02:44;16.60;;;9.93;;
68074;SDS011;54864;52.002;5.468;2022-08-01T03:04:47;31.60;;;12.35;;
68074;SDS011;54864;52.002;5.468;2022-08-01T03:06:44;23.67;;;12.27;;
68074;SDS011;54864;52.002;5.468;2022-08-01T03:08:43;18.73;;;10.48;;
68074;SDS011;54864;52.002;5.468;2022-08-01T03:10:19;24.90;;;11.57;;
68074;SDS011;54864;52.002;5.468;2022-08-01T03:11:57;23.73;;;11.63;;
68074;SDS011;54864;52.002;5.468;2022-08-01T03:13:35;19.95;;;10.77;;
68074;SDS011;54864;52.002;5.468;2022-08-01T03:14:57;23.58;;;11.07;;
68074;SDS011;54864;52.002;5.468;2022-08-01T03:16:33;18.40;;;10.55;;
68074;SDS011;54864;52.002;5.468;2022-08-01T03:18:14;17.02;;;10.27;;
68074;SDS011;54864;52.002;5.468;2022-08-01T03:19:38;20.20;;;10.57;;
68074;SDS011;54864;52.002;5.468;2022-08-01T03:21:03;26.30;;;12.02;;
68074;SDS011;54864;52.002;5.468;2022-08-01T03:22:40;20.85;;;11.35;;
68074;SDS011;54864;52.002;5.468;2022-08-01T03:26:24;21.65;;;12.02;;
68074;SDS011;54864;52.002;5.468;2022-08-01T03:27:50;17.67;;;10.93;;
68074;SDS011;54864;52.002;5.468;2022-08-01T03:29:41;19.33;;;12.25;;
68074;SDS011;54864;52.002;5.468;2022-08-01T03:31:27;18.40;;;11.02;;
68074;SDS011;54864;52.002;5.468;2022-08-01T03:33:06;19.37;;;11.57;;
68074;SDS011;54864;52.002;5.468;2022-08-01T03:34:49;17.27;;;10.63;;
68074;SDS011;54864;52.002;5.468;2022-08-01T03:36:43;22.88;;;12.20;;
68074;SDS011;54864;52.002;5.468;2022-08-01T03:38:47;16.27;;;10.98;;
68074;SDS011;54864;52.002;5.468;2022-08-01T03:42:49;19.17;;;11.27;;
68074;SDS011;54864;52.002;5.468;2022-08-01T03:44:41;17.63;;;10.60;;
68074;SDS011;54864;52.002;5.468;2022-08-01T03:47:17;16.45;;;10.52;;
68074;SDS011;54864;52.002;5.468;2022-08-01T03:49:14;20.27;;;10.98;;
68074;SDS011;54864;52.002;5.468;2022-08-01T03:51:52;18.27;;;10.80;;
68074;SDS011;54864;52.002;5.468;2022-08-01T03:53:38;18.38;;;11.55;;
68074;SDS011;54864;52.002;5.468;2022-08-01T03:55:20;17.55;;;10.68;;
68074;SDS011;54864;52.002;5.468;2022-08-01T03:57:19;19.30;;;10.27;;
68074;SDS011;54864;52.002;5.468;2022-08-01T03:58:59;18.17;;;10.50;;
68074;SDS011;54864;52.002;5.468;2022-08-01T04:00:47;22.25;;;11.82;;
68074;SDS011;54864;52.002;5.468;2022-08-01T04:02:09;18.85;;;10.32;;
68074;SDS011;54864;52.002;5.468;2022-08-01T04:03:35;18.40;;;10.80;;
68074;SDS011;54864;52.002;5.468;2022-08-01T04:04:56;18.52;;;10.95;;
68074;SDS011;54864;52.002;5.468;2022-08-01T04:06:21;15.93;;;10.05;;
68074;SDS011;54864;52.002;5.468;2022-08-01T04:07:45;22.65;;;10.57;;
68074;SDS011;54864;52.002;5.468;2022-08-01T04:09:11;26.77;;;11.52;;
68074;SDS011;54864;52.002;5.468;2022-08-01T04:10:33;24.67;;;10.88;;
68074;SDS011;54864;52.002;5.468;2022-08-01T04:11:56;20.45;;;10.73;;
68074;SDS011;54864;52.002;5.468;2022-08-01T04:13:19;16.75;;;10.05;;
68074;SDS011;54864;52.002;5.468;2022-08-01T04:14:41;20.42;;;10.93;;
68074;SDS011;54864;52.002;5.468;2022-08-01T04:16:03;19.30;;;11.00;;
68074;SDS011;54864;52.002;5.468;2022-08-01T04:17:26;19.02;;;10.73;;
68074;SDS011;54864;52.002;5.468;2022-08-01T04:18:48;20.67;;;11.17;;
68074;SDS011;54864;52.002;5.468;2022-08-01T04:20:10;17.98;;;11.80;;
68074;SDS011;54864;52.002;5.468;2022-08-01T04:21:34;16.35;;;10.50;;
68074;SDS011;54864;52.002;5.468;2022-08-01T04:22:57;16.60;;;10.68;;
68074;SDS011;54864;52.002;5.468;2022-08-01T04:24:20;16.48;;;10.18;;
68074;SDS011;54864;52.002;5.468;2022-08-01T04:25:48;14.82;;;10.20;;
68074;SDS011;54864;52.002;5.468;2022-08-01T04:27:32;17.33;;;10.98;;
68074;SDS011;54864;52.002;5.468;2022-08-01T04:29:22;17.02;;;10.63;;
68074;SDS011;54864;52.002;5.468;2022-08-01T04:31:05;16.10;;;10.57;;
68074;SDS011;54864;52.002;5.468;2022-08-01T04:33:02;18.52;;;10.70;;
68074;SDS011;54864;52.002;5.468;2022-08-01T04:35:15;16.50;;;10.65;;
68074;SDS011;54864;52.002;5.468;2022-08-01T04:37:44;15.60;;;10.15;;
68074;SDS011;54864;52.002;5.468;2022-08-01T04:39:54;19.00;;;10.52;;
68074;SDS011;54864;52.002;5.468;2022-08-01T04:43:38;13.95;;;9.05;;
68074;SDS011;54864;52.002;5.468;2022-08-01T04:45:34;18.67;;;10.63;;
68074;SDS011;54864;52.002;5.468;2022-08-01T04:47:18;16.60;;;10.27;;
68074;SDS011;54864;52.002;5.468;2022-08-01T04:49:11;15.57;;;9.73;;
68074;SDS011;54864;52.002;5.468;2022-08-01T04:50:50;16.20;;;9.40;;
68074;SDS011;54864;52.002;5.468;2022-08-01T04:52:34;13.18;;;9.32;;
68074;SDS011;54864;52.002;5.468;2022-08-01T04:57:00;13.77;;;8.30;;
68074;SDS011;54864;52.002;5.468;2022-08-01T05:01:30;12.05;;;7.53;;
68074;SDS011;54864;52.002;5.468;2022-08-01T05:03:42;11.73;;;7.82;;
68074;SDS011;54864;52.002;5.468;2022-08-01T05:05:19;11.25;;;7.68;;
68074;SDS011;54864;52.002;5.468;2022-08-01T05:07:10;11.80;;;7.60;;
68074;SDS011;54864;52.002;5.468;2022-08-01T05:11:54;12.38;;;7.03;;
68074;SDS011;54864;52.002;5.468;2022-08-01T05:13:37;12.23;;;7.40;;
68074;SDS011;54864;52.002;5.468;2022-08-01T05:15:15;11.63;;;6.80;;
68074;SDS011;54864;52.002;5.468;2022-08-01T05:16:57;9.02;;;6.22;;
68074;SDS011;54864;52.002;5.468;2022-08-01T05:18:30;7.88;;;6.18;;
68074;SDS011;54864;52.002;5.468;2022-08-01T05:19:53;10.23;;;6.65;;
68074;SDS011;54864;52.002;5.468;2022-08-01T05:21:15;11.40;;;6.30;;
68074;SDS011;54864;52.002;5.468;2022-08-01T05:22:53;10.70;;;6.38;;
68074;SDS011;54864;52.002;5.468;2022-08-01T05:24:35;10.80;;;6.45;;
68074;SDS011;54864;52.002;5.468;2022-08-01T05:26:19;9.65;;;6.43;;
68074;SDS011;54864;52.002;5.468;2022-08-01T05:27:41;10.20;;;6.07;;
68074;SDS011;54864;52.002;5.468;2022-08-01T05:29:21;10.43;;;5.72;;
68074;SDS011;54864;52.002;5.468;2022-08-01T05:31:10;9.73;;;6.15;;
68074;SDS011;54864;52.002;5.468;2022-08-01T05:33:51;7.83;;;5.30;;
68074;SDS011;54864;52.002;5.468;2022-08-01T05:35:53;8.02;;;5.50;;
68074;SDS011;54864;52.002;5.468;2022-08-01T05:39:56;9.23;;;5.63;;
68074;SDS011;54864;52.002;5.468;2022-08-01T05:44:19;5.63;;;5.05;;
68074;SDS011;54864;52.002;5.468;2022-08-01T05:46:11;4.97;;;3.92;;
68074;SDS011;54864;52.002;5.468;2022-08-01T05:52:11;4.30;;;2.22;;
68074;SDS011;54864;52.002;5.468;2022-08-01T05:54:09;3.90;;;2.00;;
68074;SDS011;54864;52.002;5.468;2022-08-01T05:55:37;10.70;;;2.70;;
68074;SDS011;54864;52.002;5.468;2022-08-01T05:57:08;3.47;;;1.83;;
68074;SDS011;54864;52.002;5.468;2022-08-01T05:59:05;3.10;;;1.88;;
68074;SDS011;54864;52.002;5.468;2022-08-01T06:00:54;3.63;;;2.10;;
68074;SDS011;54864;52.002;5.468;2022-08-01T06:02:18;4.00;;;2.15;;
68074;SDS011;54864;52.002;5.468;2022-08-01T06:03:57;2.90;;;2.28;;
68074;SDS011;54864;52.002;5.468;2022-08-01T06:05:20;2.42;;;1.98;;
68074;SDS011;54864;52.002;5.468;2022-08-01T06:06:48;3.22;;;2.20;;
68074;SDS011;54864;52.002;5.468;2022-08-01T06:08:29;2.80;;;1.90;;
68074;SDS011;54864;52.002;5.468;2022-08-01T06:10:19;5.07;;;2.10;;
68074;SDS011;54864;52.002;5.468;2022-08-01T06:12:08;2.40;;;1.77;;
68074;SDS011;54864;52.002;5.468;2022-08-01T06:13:55;1.80;;;1.70;;
68074;SDS011;54864;52.002;5.468;2022-08-01T06:15:51;6.30;;;2.03;;
68074;SDS011;54864;52.002;5.468;2022-08-01T06:17:31;4.57;;;2.10;;
68074;SDS011;54864;52.002;5.468;2022-08-01T06:19:12;1.88;;;1.77;;
68074;SDS011;54864;52.002;5.468;2022-08-01T06:20:49;2.42;;;2.00;;
68074;SDS011;54864;52.002;5.468;2022-08-01T06:22:33;2.92;;;1.90;;
68074;SDS011;54864;52.002;5.468;2022-08-01T06:24:00;4.20;;;2.03;;
68074;SDS011;54864;52.002;5.468;2022-08-01T06:25:35;2.63;;;1.95;;
68074;SDS011;54864;52.002;5.468;2022-08-01T06:27:26;2.58;;;1.75;;
68074;SDS011;54864;52.002;5.468;2022-08-01T06:29:08;3.22;;;1.92;;
68074;SDS011;54864;52.002;5.468;2022-08-01T06:30:45;3.40;;;2.05;;
68074;SDS011;54864;52.002;5.468;2022-08-01T06:32:25;2.37;;;2.10;;
68074;SDS011;54864;52.002;5.468;2022-08-01T06:34:15;5.70;;;2.38;;
68074;SDS011;54864;52.002;5.468;2022-08-01T06:35:47;2.70;;;2.08;;
68074;SDS011;54864;52.002;5.468;2022-08-01T06:37:56;4.95;;;2.40;;
68074;SDS011;54864;52.002;5.468;2022-08-01T06:39:50;4.88;;;2.05;;
68074;SDS011;54864;52.002;5.468;2022-08-01T06:41:26;3.00;;;2.05;;
68074;SDS011;54864;52.002;5.468;2022-08-01T06:43:36;5.13;;;2.35;;
68074;SDS011;54864;52.002;5.468;2022-08-01T06:45:24;2.95;;;2.33;;
68074;SDS011;54864;52.002;5.468;2022-08-01T06:46:49;3.05;;;2.20;;
68074;SDS011;54864;52.002;5.468;2022-08-01T06:48:22;4.78;;;2.80;;
68074;SDS011;54864;52.002;5.468;2022-08-01T06:52:47;3.33;;;2.60;;
68074;SDS011;54864;52.002;5.468;2022-08-01T06:54:32;3.25;;;2.50;;
68074;SDS011;54864;52.002;5.468;2022-08-01T06:56:14;3.00;;;2.53;;
68074;SDS011;54864;52.002;5.468;2022-08-01T06:58:14;4.70;;;2.63;;
68074;SDS011;54864;52.002;5.468;2022-08-01T06:59:36;5.03;;;2.42;;
68074;SDS011;54864;52.002;5.468;2022-08-01T07:01:00;2.60;;;2.40;;
68074;SDS011;54864;52.002;5.468;2022-08-01T07:02:22;3.70;;;2.78;;
68074;SDS011;54864;52.002;5.468;2022-08-01T07:04:12;11.57;;;2.50;;
68074;SDS011;54864;52.002;5.468;2022-08-01T07:05:54;4.15;;;2.50;;
68074;SDS011;54864;52.002;5.468;2022-08-01T07:07:28;4.03;;;2.63;;
68074;SDS011;54864;52.002;5.468;2022-08-01T07:09:02;4.13;;;2.55;;
68074;SDS011;54864;52.002;5.468;2022-08-01T07:10:45;3.33;;;2.60;;
68074;SDS011;54864;52.002;5.468;2022-08-01T07:12:42;3.22;;;2.63;;
68074;SDS011;54864;52.002;5.468;2022-08-01T07:14:32;3.80;;;2.53;;
68074;SDS011;54864;52.002;5.468;2022-08-01T07:16:11;4.10;;;2.38;;
68074;SDS011;54864;52.002;5.468;2022-08-01T07:17:56;3.28;;;2.38;;
68074;SDS011;54864;52.002;5.468;2022-08-01T07:19:26;3.30;;;2.53;;
68074;SDS011;54864;52.002;5.468;2022-08-01T07:21:03;5.13;;;2.55;;
68074;SDS011;54864;52.002;5.468;2022-08-01T07:22:25;3.45;;;2.45;;
68074;SDS011;54864;52.002;5.468;2022-08-01T07:23:47;4.07;;;2.60;;
68074;SDS011;54864;52.002;5.468;2022-08-01T07:25:10;4.03;;;2.53;;
68074;SDS011;54864;52.002;5.468;2022-08-01T07:26:33;4.25;;;2.60;;
68074;SDS011;54864;52.002;5.468;2022-08-01T07:27:55;4.68;;;2.95;;
68074;SDS011;54864;52.002;5.468;2022-08-01T07:29:17;5.13;;;2.90;;
68074;SDS011;54864;52.002;5.468;2022-08-01T07:30:39;6.10;;;2.70;;
68074;SDS011;54864;52.002;5.468;2022-08-01T07:32:02;3.13;;;2.55;;
68074;SDS011;54864;52.002;5.468;2022-08-01T07:33:25;5.82;;;2.90;;
68074;SDS011;54864;52.002;5.468;2022-08-01T07:34:47;4.22;;;2.60;;
68074;SDS011;54864;52.002;5.468;2022-08-01T07:36:08;4.68;;;2.60;;
68074;SDS011;54864;52.002;5.468;2022-08-01T07:37:31;3.42;;;2.60;;
68074;SDS011;54864;52.002;5.468;2022-08-01T07:38:53;2.90;;;2.40;;
68074;SDS011;54864;52.002;5.468;2022-08-01T07:40:17;2.80;;;2.50;;
68074;SDS011;54864;52.002;5.468;2022-08-01T07:41:40;3.60;;;2.55;;
68074;SDS011;54864;52.002;5.468;2022-08-01T07:43:02;4.40;;;2.38;;
68074;SDS011;54864;52.002;5.468;2022-08-01T07:44:24;4.40;;;2.42;;
68074;SDS011;54864;52.002;5.468;2022-08-01T07:45:47;3.47;;;2.50;;
68074;SDS011;54864;52.002;5.468;2022-08-01T07:47:09;3.45;;;2.67;;
68074;SDS011;54864;52.002;5.468;2022-08-01T07:48:31;5.38;;;2.60;;
68074;SDS011;54864;52.002;5.468;2022-08-01T07:49:58;2.92;;;2.60;;
68074;SDS011;54864;52.002;5.468;2022-08-01T07:51:21;2.55;;;2.15;;
68074;SDS011;54864;52.002;5.468;2022-08-01T07:52:43;3.22;;;2.45;;
68074;SDS011;54864;52.002;5.468;2022-08-01T07:54:05;3.13;;;2.22;;
68074;SDS011;54864;52.002;5.468;2022-08-01T07:55:29;3.55;;;2.33;;
68074;SDS011;54864;52.002;5.468;2022-08-01T07:56:52;4.13;;;2.53;;
68074;SDS011;54864;52.002;5.468;2022-08-01T07:58:14;3.72;;;2.47;;
68074;SDS011;54864;52.002;5.468;2022-08-01T07:59:38;3.20;;;2.65;;
68074;SDS011;54864;52.002;5.468;2022-08-01T08:01:01;3.50;;;2.60;;
68074;SDS011;54864;52.002;5.468;2022-08-01T08:02:24;3.95;;;2.65;;
68074;SDS011;54864;52.002;5.468;2022-08-01T08:03:47;2.72;;;2.45;;
68074;SDS011;54864;52.002;5.468;2022-08-01T08:05:09;3.85;;;2.60;;
68074;SDS011;54864;52.002;5.468;2022-08-01T08:06:32;3.13;;;2.30;;
68074;SDS011;54864;52.002;5.468;2022-08-01T08:07:55;2.65;;;2.45;;
68074;SDS011;54864;52.002;5.468;2022-08-01T08:09:19;2.63;;;2.28;;
68074;SDS011;54864;52.002;5.468;2022-08-01T08:10:43;2.35;;;2.13;;
68074;SDS011;54864;52.002;5.468;2022-08-01T08:12:06;2.67;;;2.28;;
68074;SDS011;54864;52.002;5.468;2022-08-01T08:13:28;4.63;;;1.98;;
68074;SDS011;54864;52.002;5.468;2022-08-01T08:14:50;4.80;;;2.90;;
68074;SDS011;54864;52.002;5.468;2022-08-01T08:16:12;3.50;;;2.25;;
68074;SDS011;54864;52.002;5.468;2022-08-01T08:17:34;3.63;;;2.10;;
68074;SDS011;54864;52.002;5.468;2022-08-01T08:18:56;2.50;;;2.30;;
68074;SDS011;54864;52.002;5.468;2022-08-01T08:20:17;3.95;;;2.67;;
68074;SDS011;54864;52.002;5.468;2022-08-01T08:21:41;2.92;;;2.35;;
68074;SDS011;54864;52.002;5.468;2022-08-01T08:23:03;2.40;;;2.20;;
68074;SDS011;54864;52.002;5.468;2022-08-01T08:24:47;3.30;;;2.50;;
68074;SDS011;54864;52.002;5.468;2022-08-01T08:26:09;3.25;;;2.40;;
68074;SDS011;54864;52.002;5.468;2022-08-01T08:27:31;2.60;;;2.40;;
68074;SDS011;54864;52.002;5.468;2022-08-01T08:28:53;2.78;;;2.47;;
68074;SDS011;54864;52.002;5.468;2022-08-01T08:30:15;2.97;;;2.25;;
68074;SDS011;54864;52.002;5.468;2022-08-01T08:31:38;6.60;;;2.38;;
68074;SDS011;54864;52.002;5.468;2022-08-01T08:33:00;6.88;;;2.63;;
68074;SDS011;54864;52.002;5.468;2022-08-01T08:34:22;6.60;;;2.80;;
68074;SDS011;54864;52.002;5.468;2022-08-01T08:35:45;9.07;;;2.85;;
68074;SDS011;54864;52.002;5.468;2022-08-01T08:37:07;4.63;;;2.58;;
68074;SDS011;54864;52.002;5.468;2022-08-01T08:38:30;5.75;;;2.80;;
68074;SDS011;54864;52.002;5.468;2022-08-01T08:39:52;5.57;;;3.50;;
68074;SDS011;54864;52.002;5.468;2022-08-01T08:41:15;6.75;;;3.30;;
68074;SDS011;54864;52.002;5.468;2022-08-01T08:42:39;8.23;;;3.53;;
68074;SDS011;54864;52.002;5.468;2022-08-01T08:44:02;7.47;;;3.85;;
68074;SDS011;54864;52.002;5.468;2022-08-01T08:45:24;6.13;;;3.60;;
68074;SDS011;54864;52.002;5.468;2022-08-01T08:46:49;8.32;;;3.72;;
68074;SDS011;54864;52.002;5.468;2022-08-01T08:48:13;6.95;;;3.60;;
68074;SDS011;54864;52.002;5.468;2022-08-01T08:49:36;10.88;;;5.05;;
68074;SDS011;54864;52.002;5.468;2022-08-01T08:50:59;7.93;;;4.43;;
68074;SDS011;54864;52.002;5.468;2022-08-01T08:52:22;8.68;;;4.40;;
68074;SDS011;54864;52.002;5.468;2022-08-01T08:53:45;9.80;;;4.13;;
68074;SDS011;54864;52.002;5.468;2022-08-01T08:55:08;7.35;;;4.25;;
68074;SDS011;54864;52.002;5.468;2022-08-01T08:56:36;7.82;;;4.65;;
68074;SDS011;54864;52.002;5.468;2022-08-01T08:57:59;10.50;;;5.20;;
68074;SDS011;54864;52.002;5.468;2022-08-01T08:59:26;7.07;;;4.45;;
68074;SDS011;54864;52.002;5.468;2022-08-01T09:00:49;9.10;;;4.60;;
68074;SDS011;54864;52.002;5.468;2022-08-01T09:02:12;8.73;;;4.78;;
68074;SDS011;54864;52.002;5.468;2022-08-01T09:03:34;8.45;;;4.80;;
68074;SDS011;54864;52.002;5.468;2022-08-01T09:04:56;8.43;;;4.20;;
68074;SDS011;54864;52.002;5.468;2022-08-01T09:06:19;10.88;;;4.65;;
68074;SDS011;54864;52.002;5.468;2022-08-01T09:07:42;8.13;;;4.43;;
68074;SDS011;54864;52.002;5.468;2022-08-01T09:09:04;7.53;;;4.20;;
68074;SDS011;54864;52.002;5.468;2022-08-01T09:10:28;7.00;;;4.15;;
68074;SDS011;54864;52.002;5.468;2022-08-01T09:11:51;9.30;;;4.88;;
68074;SDS011;54864;52.002;5.468;2022-08-01T09:13:16;9.18;;;4.63;;
68074;SDS011;54864;52.002;5.468;2022-08-01T09:14:43;10.13;;;4.95;;
68074;SDS011;54864;52.002;5.468;2022-08-01T09:16:07;14.77;;;5.35;;
68074;SDS011;54864;52.002;5.468;2022-08-01T09:17:40;11.80;;;5.45;;
68074;SDS011;54864;52.002;5.468;2022-08-01T09:19:06;12.98;;;5.25;;
68074;SDS011;54864;52.002;5.468;2022-08-01T09:20:35;15.90;;;5.97;;
68074;SDS011;54864;52.002;5.468;2022-08-01T09:21:57;16.30;;;5.82;;
68074;SDS011;54864;52.002;5.468;2022-08-01T09:23:30;15.32;;;6.18;;
68074;SDS011;54864;52.002;5.468;2022-08-01T09:24:57;15.90;;;5.87;;
68074;SDS011;54864;52.002;5.468;2022-08-01T09:26:28;17.10;;;5.70;;
68074;SDS011;54864;52.002;5.468;2022-08-01T09:28:02;18.10;;;6.07;;
68074;SDS011;54864;52.002;5.468;2022-08-01T09:29:27;14.98;;;5.63;;
68074;SDS011;54864;52.002;5.468;2022-08-01T09:30:52;19.85;;;6.10;;
68074;SDS011;54864;52.002;5.468;2022-08-01T09:32:17;16.40;;;6.18;;
68074;SDS011;54864;52.002;5.468;2022-08-01T09:33:46;14.15;;;5.45;;
68074;SDS011;54864;52.002;5.468;2022-08-01T09:35:23;17.67;;;6.35;;
68074;SDS011;54864;52.002;5.468;2022-08-01T09:36:47;15.27;;;5.72;;
68074;SDS011;54864;52.002;5.468;2022-08-01T09:38:16;24.20;;;5.80;;
68074;SDS011;54864;52.002;5.468;2022-08-01T09:39:39;14.38;;;5.95;;
68074;SDS011;54864;52.002;5.468;2022-08-01T09:41:03;18.08;;;5.53;;
68074;SDS011;54864;52.002;5.468;2022-08-01T09:42:27;21.40;;;6.00;;
68074;SDS011;54864;52.002;5.468;2022-08-01T09:43:51;15.52;;;6.07;;
68074;SDS011;54864;52.002;5.468;2022-08-01T09:47:04;15.52;;;5.30;;
68074;SDS011;54864;52.002;5.468;2022-08-01T09:52:12;18.02;;;5.65;;
68074;SDS011;54864;52.002;5.468;2022-08-01T09:56:51;16.33;;;5.32;;
68074;SDS011;54864;52.002;5.468;2022-08-01T10:01:10;16.63;;;5.70;;
68074;SDS011;54864;52.002;5.468;2022-08-01T10:03:19;18.02;;;5.50;;
68074;SDS011;54864;52.002;5.468;2022-08-01T10:04:54;14.65;;;5.20;;
68074;SDS011;54864;52.002;5.468;2022-08-01T10:06:22;15.43;;;4.75;;
68074;SDS011;54864;52.002;5.468;2022-08-01T10:08:11;21.67;;;5.60;;
68074;SDS011;54864;52.002;5.468;2022-08-01T10:09:43;14.57;;;5.43;;
68074;SDS011;54864;52.002;5.468;2022-08-01T10:11:12;14.57;;;4.70;;
68074;SDS011;54864;52.002;5.468;2022-08-01T10:12:34;16.02;;;5.45;;
68074;SDS011;54864;52.002;5.468;2022-08-01T10:15:39;14.68;;;4.55;;
68074;SDS011;54864;52.002;5.468;2022-08-01T10:17:16;15.90;;;5.05;;
68074;SDS011;54864;52.002;5.468;2022-08-01T10:19:07;13.18;;;4.10;;
68074;SDS011;54864;52.002;5.468;2022-08-01T10:20:37;9.90;;;3.80;;
68074;SDS011;54864;52.002;5.468;2022-08-01T10:22:34;13.75;;;4.15;;
68074;SDS011;54864;52.002;5.468;2022-08-01T10:24:04;11.80;;;4.00;;
68074;SDS011;54864;52.002;5.468;2022-08-01T10:25:40;11.98;;;4.10;;
68074;SDS011;54864;52.002;5.468;2022-08-01T10:27:18;14.52;;;3.80;;
68074;SDS011;54864;52.002;5.468;2022-08-01T10:29:41;15.38;;;3.40;;
68074;SDS011;54864;52.002;5.468;2022-08-01T10:31:13;10.25;;;3.25;;
68074;SDS011;54864;52.002;5.468;2022-08-01T10:32:36;14.77;;;3.60;;
68074;SDS011;54864;52.002;5.468;2022-08-01T10:34:11;11.35;;;3.38;;
68074;SDS011;54864;52.002;5.468;2022-08-01T10:35:45;11.48;;;3.60;;
68074;SDS011;54864;52.002;5.468;2022-08-01T10:37:27;12.55;;;4.07;;
68074;SDS011;54864;52.002;5.468;2022-08-01T10:39:01;14.27;;;3.60;;
68074;SDS011;54864;52.002;5.468;2022-08-01T10:40:24;9.57;;;3.53;;
68074;SDS011;54864;52.002;5.468;2022-08-01T10:41:47;11.02;;;3.22;;
68074;SDS011;54864;52.002;5.468;2022-08-01T10:43:10;15.63;;;3.50;;
68074;SDS011;54864;52.002;5.468;2022-08-01T10:44:35;10.80;;;3.58;;
68074;SDS011;54864;52.002;5.468;2022-08-01T10:46:00;12.90;;;3.50;;
68074;SDS011;54864;52.002;5.468;2022-08-01T10:47:37;15.32;;;3.40;;
68074;SDS011;54864;52.002;5.468;2022-08-01T10:49:13;10.77;;;3.28;;
68074;SDS011;54864;52.002;5.468;2022-08-01T10:50:44;12.90;;;3.50;;
68074;SDS011;54864;52.002;5.468;2022-08-01T10:52:20;10.07;;;2.72;;
68074;SDS011;54864;52.002;5.468;2022-08-01T10:55:28;11.27;;;2.77;;
68074;SDS011;54864;52.002;5.468;2022-08-01T10:56:50;11.95;;;3.13;;
68074;SDS011;54864;52.002;5.468;2022-08-01T10:58:13;13.07;;;3.42;;
68074;SDS011;54864;52.002;5.468;2022-08-01T10:59:35;9.77;;;3.50;;
68074;SDS011;54864;52.002;5.468;2022-08-01T11:01:21;9.00;;;3.30;;
68074;SDS011;54864;52.002;5.468;2022-08-01T11:03:00;10.38;;;2.95;;
68074;SDS011;54864;52.002;5.468;2022-08-01T11:04:32;12.98;;;3.55;;
68074;SDS011;54864;52.002;5.468;2022-08-01T11:06:17;10.10;;;3.25;;
68074;SDS011;54864;52.002;5.468;2022-08-01T11:08:07;13.50;;;2.80;;
68074;SDS011;54864;52.002;5.468;2022-08-01T11:10:33;9.43;;;2.65;;
68074;SDS011;54864;52.002;5.468;2022-08-01T11:12:00;6.95;;;2.20;;
68074;SDS011;54864;52.002;5.468;2022-08-01T11:17:56;9.80;;;2.45;;
68074;SDS011;54864;52.002;5.468;2022-08-01T11:21:59;11.73;;;2.72;;
68074;SDS011;54864;52.002;5.468;2022-08-01T11:23:25;8.75;;;2.50;;
68074;SDS011;54864;52.002;5.468;2022-08-01T11:24:55;10.20;;;2.55;;
68074;SDS011;54864;52.002;5.468;2022-08-01T11:26:21;11.00;;;2.70;;
68074;SDS011;54864;52.002;5.468;2022-08-01T11:27:43;9.52;;;2.50;;
68074;SDS011;54864;52.002;5.468;2022-08-01T11:29:10;10.20;;;2.80;;
68074;SDS011;54864;52.002;5.468;2022-08-01T11:30:39;7.55;;;2.65;;
68074;SDS011;54864;52.002;5.468;2022-08-01T11:33:49;9.80;;;2.92;;
68074;SDS011;54864;52.002;5.468;2022-08-01T11:35:23;11.90;;;2.70;;
68074;SDS011;54864;52.002;5.468;2022-08-01T11:36:56;12.07;;;3.08;;
68074;SDS011;54864;52.002;5.468;2022-08-01T11:38:47;11.23;;;2.72;;
68074;SDS011;54864;52.002;5.468;2022-08-01T11:40:31;10.52;;;2.90;;
68074;SDS011;54864;52.002;5.468;2022-08-01T11:42:17;11.60;;;2.55;;
68074;SDS011;54864;52.002;5.468;2022-08-01T11:43:54;7.28;;;2.38;;
68074;SDS011;54864;52.002;5.468;2022-08-01T11:45:17;7.33;;;2.97;;
68074;SDS011;54864;52.002;5.468;2022-08-01T11:46:47;7.50;;;2.97;;
68074;SDS011;54864;52.002;5.468;2022-08-01T11:51:22;12.88;;;2.90;;
68074;SDS011;54864;52.002;5.468;2022-08-01T11:52:59;7.85;;;2.75;;
68074;SDS011;54864;52.002;5.468;2022-08-01T11:55:12;10.00;;;2.88;;